Estación municipal de Les Masies de Roda (Osona, Ter)

Consulta los datos en tiempo real de la estación municipal de Les Masies de Roda





Hora UTC 06:25
Temperatura 8.9 ºC
Suelo 15 cm 9.9 ºC
Humedad 99.4 %
Presión 1011.9 hPa
Pluja 0.1 mm
Velocidad viento 3.2 km/h
Dirección viento SSW
Radiación solar 95.2 W/m²

Datos diarios 2026-05-05



Hora UTC (invierno +1h; verano +2h)
Temperatura (ºC) Humedad (%) Presión (hPa) Velocidad viento (km/h) Precipitación (mm) Radiación solar (W/m²)
Hora UTC Aire Suelo 15 cm Humedad Presión Vel. Dir. Vel. Max Dir. Intent. máx 5 min. Rad. Sol.
00:05 8.7 7.1 98.6 1011.6 0.6 NNE 0.6 NNE 0.0 0.1
00:10 8.6 7.4 98.6 1011.7 0.3 N 2.5 N 0.0 0.1
00:15 8.8 7.7 98.8 1011.7 1.8 NNE 3.2 NE 0.0 0.1
00:20 9.1 8.0 98.9 1011.6 1.4 ENE 3.9 E 0.0 0.1
00:25 9.0 8.1 98.8 1011.7 0.0 NNE 0.0 ENE 0.0 0.1
00:30 9.0 8.4 98.8 1011.5 2.6 ENE 4.2 ENE 0.0 0.1
00:35 9.3 8.8 99.0 1011.6 1.3 ENE 4.2 ENE 0.0 0.1
00:40 9.4 9.0 98.9 1011.5 1.4 NE 3.2 ENE 0.0 0.1
00:45 9.4 9.1 98.9 1011.6 2.0 N 3.5 NNW 0.0 0.1
00:50 9.3 9.0 98.9 1011.4 2.5 NNE 4.2 NNW 0.0 0.1
00:55 9.3 9.0 98.9 1011.5 0.5 N 2.5 NNE 0.0 0.1
01:00 9.4 9.1 99.0 1011.4 0.0 WSW 1.8 WSW 0.0 0.1
01:05 9.4 9.1 99.0 1011.5 2.8 WSW 5.3 SW 0.0 0.1
01:10 9.4 9.2 99.0 1011.3 0.5 WNW 3.5 WNW 0.0 0.1
01:15 9.3 9.1 98.9 1011.5 4.1 WNW 5.3 WNW 0.0 0.1
01:20 9.2 9.1 98.9 1011.4 3.7 WNW 5.7 WNW 0.0 0.1
01:25 9.0 8.9 98.9 1011.5 3.4 NW 5.0 NNW 0.0 0.1
01:30 8.9 8.8 98.9 1011.4 3.2 NNW 4.6 NNW 0.0 0.1
01:35 9.0 8.7 99.0 1011.5 1.7 NNE 3.9 NNE 0.0 0.1
01:40 9.0 8.7 99.1 1011.5 1.3 NE 3.5 ENE 0.0 0.1
01:45 9.0 8.8 99.1 1011.6 0.3 ENE 2.1 ENE 0.0 0.1
01:50 9.1 8.9 99.1 1011.5 1.9 ENE 4.2 ENE 0.0 0.1
01:55 9.2 9.1 99.1 1011.4 1.6 E 3.5 ENE 0.0 0.1
02:00 9.2 9.2 99.1 1011.5 2.9 ENE 4.2 ENE 0.0 0.1
02:05 9.2 9.2 99.1 1011.5 2.5 NE 4.2 NE 0.0 0.1
02:10 9.1 9.1 99.1 1011.6 1.0 NE 3.5 NE 0.0 0.1
02:15 9.1 9.1 99.1 1011.5 2.0 ENE 5.0 E 0.0 0.1
02:20 9.2 9.2 99.2 1011.7 0.6 NE 2.8 NE 0.0 0.1
02:25 9.3 9.2 99.2 1011.5 1.9 NE 4.2 NE 0.0 0.1
02:30 9.4 9.3 99.2 1011.6 3.1 NE 6.4 NNE 0.0 0.1
02:35 9.4 9.3 99.2 1011.4 2.7 NE 6.0 NE 0.0 0.1
02:40 9.4 9.3 99.2 1011.6 0.1 NE 1.8 NE 0.0 0.1
02:45 9.4 9.4 99.2 1011.5 1.0 NNE 3.2 N 0.0 0.1
02:50 9.4 9.4 99.2 1011.6 0.0 NNE 0.0 N 0.0 0.1
02:55 9.4 9.2 99.2 1011.5 0.0 NNE 0.0 NE 0.0 0.1
03:00 9.4 9.1 99.2 1011.5 0.9 NE 2.8 N 0.0 0.1
03:05 9.4 8.8 99.2 1011.4 0.3 N 2.5 N 0.0 0.1
03:10 9.3 8.5 99.2 1011.4 0.0 NNE 0.0 NNE 0.0 0.1
03:15 9.3 8.5 99.2 1011.5 3.8 SSE 5.7 SSE 0.0 0.1
03:20 9.5 8.8 99.3 1011.4 1.9 SSE 4.6 S 0.0 0.1
03:25 9.5 8.9 99.3 1011.4 0.0 NNE 0.0 ESE 0.0 0.1
03:30 9.5 9.0 99.2 1011.2 0.1 NE 1.8 NE 0.0 0.1
03:35 9.5 9.1 99.3 1011.4 1.4 ESE 3.2 SE 0.0 0.1
03:40 9.5 9.0 99.2 1011.2 1.7 W 4.2 W 0.0 0.1
03:45 9.4 8.9 99.2 1011.4 3.2 WSW 4.2 WSW 0.0 0.1
03:50 9.4 9.0 99.2 1011.2 3.4 SSW 5.3 S 0.0 0.1
03:55 9.4 9.0 99.3 1011.3 3.0 W 5.0 W 0.0 0.1
04:00 9.2 9.0 99.2 1011.1 1.8 NNW 2.5 WNW 0.0 0.1
04:05 9.1 9.0 99.2 1011.2 0.5 NW 2.5 NW 0.0 0.1
04:10 9.2 9.1 99.3 1011.2 2.5 W 3.5 W 0.0 0.1
04:15 9.3 9.1 99.3 1011.2 1.5 WNW 3.2 WNW 0.0 0.1
04:20 9.2 9.1 99.3 1011.2 2.4 NE 3.9 NNE 0.0 0.1
04:25 9.1 9.1 99.2 1011.2 2.8 N 4.2 N 0.0 0.1
04:30 9.0 9.0 99.2 1011.2 0.3 NNW 2.1 NNW 0.0 0.3
04:35 9.1 9.1 99.3 1011.2 1.6 SSW 5.0 SSW 0.0 0.6
04:40 9.1 9.1 99.3 1011.3 3.9 S 6.4 SSW 0.1 1.3
04:45 9.0 9.1 99.3 1011.3 5.2 SSW 7.8 SSW 0.0 2.1
04:50 8.9 9.0 99.3 1011.4 4.5 S 7.4 S 0.0 3.2
04:55 8.7 8.9 99.2 1011.2 4.6 S 7.1 S 0.0 4.5
05:00 8.7 8.8 99.3 1011.4 4.0 S 6.7 S 0.0 5.8
05:05 8.7 8.8 99.3 1011.3 4.8 S 6.4 S 0.0 7.7
05:10 8.6 8.8 99.3 1011.5 5.1 S 7.1 SSW 0.0 10.1
05:15 8.5 8.8 99.3 1011.4 4.2 SSW 6.4 SSW 0.0 14.5
05:20 8.5 8.7 99.3 1011.6 4.6 SSW 6.0 SSW 0.0 17.5
05:25 8.5 8.7 99.3 1011.5 3.0 SSW 5.3 SSW 0.0 18.1
05:30 8.6 8.8 99.4 1011.7 3.4 SSW 5.7 SSW 0.0 19.3
05:35 8.5 8.8 99.3 1011.6 3.4 SSW 5.7 SSE 0.0 21.0
05:40 8.5 8.8 99.3 1011.8 3.9 SSW 6.4 S 0.0 26.5
05:45 8.5 8.9 99.4 1011.7 3.8 SW 6.0 SW 0.0 35.5
05:50 8.5 9.0 99.3 1011.8 4.4 WSW 6.4 WSW 0.0 45.5
05:55 8.5 9.1 99.3 1011.8 4.0 WSW 5.3 WSW 0.0 49.9
06:00 8.6 9.2 99.4 1011.8 3.3 SW 6.0 SW 0.0 51.7
06:05 8.6 9.3 99.3 1011.9 4.4 S 7.1 SE 0.0 54.3
06:10 8.4 9.2 99.3 1011.7 3.0 SSE 5.3 SSE 0.0 63.0
06:15 8.4 9.3 99.3 1011.8 3.6 SSE 6.4 SSE 0.0 75.3
06:20 8.6 9.6 99.4 1011.7 3.6 SSW 5.7 SW 0.0 100.1
06:25 8.9 9.9 99.4 1011.9 3.2 SSW 5.0 SSW 0.0 95.2
Máxima 9.5 9.9 99.4 1011.9 5.2 SSW 7.8 SSW 0.1 100.1
Mínima 8.4 7.1 98.6 1011.1
Total 0.1